.
WxDataArchive / Data Records for 2013-07-22
2013-07-21 July 2013 2013-07-23

Data Records for Monday, 22 July 2013

Time	Temp	Chill	HIndex	Humid	Dewpt	 Wind 	HiWind	WindDir	Rain 	Barom 
-----	----	-----	------	-----	-----	------	------	-------	-----	----- 
00:00	75.6	75.6	76.5	79	68.6	1	3	68	0.00	29.892 
00:05	75.4	75.4	76.2	79	68.4	1	4	68	0.00	29.892 
00:10	75.3	75.3	76.0	80	68.7	1	3	68	0.00	29.892 
00:15	75.3	75.3	76.0	80	68.7	1	3	68	0.00	29.887 
00:20	75.1	75.1	75.7	80	68.5	2	6	90	0.00	29.887 
00:25	74.9	74.9	74.9	81	68.7	1	3	68	0.00	29.887 
00:30	74.9	74.9	74.9	80	68.3	1	3	68	0.00	29.884 
00:35	74.7	74.7	74.7	81	68.5	1	3	68	0.00	29.884 
00:40	74.7	74.7	74.7	81	68.5	1	3	68	0.00	29.884 
00:45	74.6	74.6	74.6	81	68.4	1	4	68	0.00	29.878 
00:50	74.6	74.6	74.6	81	68.4	1	3	112	0.00	29.878 
00:55	74.4	74.4	74.4	81	68.2	1	4	112	0.00	29.878 
01:00	74.2	74.2	74.2	81	68.0	2	6	68	0.00	29.877 
01:05	74.0	74.0	74.0	81	67.8	1	4	90	0.00	29.877 
01:10	74.0	74.0	74.0	81	67.8	1	6	68	0.00	29.877 
01:15	73.9	73.9	73.9	81	67.7	1	2	68	0.00	29.877 
01:20	73.9	73.9	73.9	81	67.7	1	3	68	0.00	29.877 
01:25	73.9	73.9	73.9	81	67.7	1	3	90	0.00	29.877 
01:30	73.7	73.7	73.7	81	67.5	1	4	68	0.00	29.878 
01:35	73.7	73.7	73.7	80	67.1	1	2	68	0.00	29.878 
01:40	73.5	73.5	73.5	81	67.3	1	4	68	0.00	29.878 
01:45	73.5	73.5	73.5	80	66.9	0	2	90	0.00	29.873 
01:50	73.3	73.3	73.3	80	66.7	1	6	90	0.00	29.873 
01:55	73.3	73.3	73.3	80	66.7	1	4	90	0.00	29.873 
02:00	73.2	73.2	73.2	80	66.6	1	4	90	0.00	29.872 
02:05	73.2	73.2	73.2	80	66.6	2	5	68	0.00	29.872 
02:10	73.0	73.0	73.0	80	66.5	2	4	68	0.00	29.872 
02:15	73.0	73.0	73.0	80	66.5	2	5	68	0.00	29.861 
02:20	72.8	72.8	72.8	81	66.6	1	4	68	0.00	29.861 
02:25	72.8	72.8	72.8	81	66.6	1	3	68	0.00	29.861 
02:30	72.7	72.7	72.7	81	66.5	1	3	68	0.00	29.859 
02:35	72.7	72.7	72.7	81	66.5	1	5	68	0.00	29.859 
02:40	72.5	72.5	72.5	81	66.3	1	4	68	0.00	29.859 
02:45	72.5	72.5	72.5	81	66.3	2	5	68	0.00	29.851 
02:50	72.3	72.3	72.3	81	66.1	1	5	90	0.00	29.851 
02:55	72.3	72.3	72.3	82	66.5	0	2	90	0.00	29.851 
03:00	72.3	72.3	72.3	82	66.5	0	2	90	0.00	29.854 
03:05	72.3	72.3	72.3	82	66.5	0	2	90	0.00	29.854 
03:10	72.1	72.1	72.1	82	66.3	1	3	90	0.00	29.854 
03:15	72.0	72.0	72.0	83	66.5	1	3	90	0.00	29.847 
03:20	72.0	72.0	72.0	83	66.5	1	3	90	0.00	29.847 
03:25	71.8	71.8	71.8	83	66.3	1	3	90	0.00	29.847 
03:30	71.6	71.6	71.6	83	66.2	1	3	90	0.00	29.844 
03:35	71.6	71.6	71.6	84	66.5	1	3	90	0.00	29.844 
03:40	71.5	71.5	71.5	84	66.4	1	4	90	0.00	29.844 
03:45	71.3	71.3	71.3	84	66.2	1	2	90	0.00	29.838 
03:50	71.3	71.3	71.3	84	66.2	0	2	90	0.00	29.838 
03:55	71.1	71.1	71.1	84	66.0	0	1	90	0.00	29.838 
04:00	71.1	71.1	71.1	84	66.0	0	1	90	0.00	29.848 
04:05	70.9	70.9	70.9	84	65.8	1	3	90	0.00	29.848 
04:10	70.9	70.9	70.9	84	65.8	0	2	68	0.00	29.848 
04:15	70.6	70.6	70.6	83	65.2	1	3	68	0.00	29.847 
04:20	70.4	70.4	70.4	83	65.0	0	2	45	0.00	29.847 
04:25	70.3	70.3	70.3	84	65.2	0	1	45	0.00	29.847 
04:30	70.3	70.3	70.3	84	65.2	0	0	---	0.00	29.849 
04:35	70.1	70.1	70.1	85	65.4	0	2	45	0.00	29.849 
04:40	69.9	69.9	69.9	84	64.8	0	4	112	0.00	29.849 
04:45	69.9	69.9	69.9	84	64.8	0	4	112	0.00	29.851 
04:50	69.9	69.9	69.9	84	64.8	0	2	112	0.00	29.851 
04:55	69.8	69.8	69.8	83	64.4	0	3	112	0.00	29.851 
05:00	69.8	69.8	69.8	83	64.4	1	4	135	0.00	29.845 
05:05	69.8	69.8	69.8	81	63.7	1	5	90	0.00	29.845 
05:10	69.6	69.6	69.6	81	63.5	1	4	90	0.00	29.845 
05:15	69.6	69.6	69.6	82	63.9	0	1	90	0.02	29.862 
05:20	69.4	69.4	69.4	83	64.0	0	1	90	0.06	29.862 
05:25	69.1	69.1	69.1	84	64.1	0	0	---	0.01	29.862 
05:30	68.6	68.6	68.6	85	63.9	0	1	90	0.01	29.866 
05:35	68.3	68.3	68.3	86	63.9	0	0	---	0.01	29.866 
05:40	67.8	67.8	67.8	87	63.8	0	0	---	0.00	29.866 
05:45	67.6	67.6	67.6	88	63.9	0	1	90	0.01	29.870 
05:50	67.3	67.3	67.3	89	63.9	0	1	90	0.01	29.870 
05:55	67.3	67.3	67.3	89	63.9	0	1	90	0.00	29.870 
06:00	67.1	67.1	67.1	90	64.1	0	2	90	0.00	29.866 
06:05	66.9	66.9	66.9	90	63.9	0	1	90	0.00	29.866 
06:10	66.8	66.8	66.8	91	64.1	0	1	90	0.01	29.866 
06:15	66.8	66.8	66.8	91	64.1	0	1	90	0.00	29.866 
06:20	66.6	66.6	66.6	91	63.9	0	2	90	0.00	29.866 
06:25	66.4	66.4	66.4	92	64.0	0	3	90	0.01	29.866 
06:30	66.4	66.4	66.4	92	64.0	0	1	90	0.01	29.865 
06:35	66.3	66.3	66.3	92	63.9	0	1	90	0.01	29.865 
06:40	66.3	66.3	66.3	92	63.9	0	3	90	0.01	29.865 
06:45	66.1	66.1	66.1	92	63.7	0	2	90	0.01	29.858 
06:50	66.1	66.1	66.1	92	63.7	0	1	90	0.00	29.858 
06:55	66.1	66.1	66.1	93	64.0	0	1	90	0.01	29.858 
07:00	66.1	66.1	66.1	93	64.0	0	2	90	0.00	29.857 
07:05	66.0	66.0	66.0	93	63.9	0	3	90	0.01	29.857 
07:10	66.0	66.0	66.0	93	63.9	0	3	90	0.00	29.857 
07:15	66.0	66.0	66.0	93	63.9	0	2	90	0.01	29.864 
07:20	65.8	65.8	65.8	93	63.7	0	3	90	0.00	29.864 
07:25	65.8	65.8	65.8	93	63.7	0	4	90	0.01	29.864 
07:30	65.6	65.6	65.6	93	63.5	0	1	90	0.00	29.869 
07:35	65.6	65.6	65.6	93	63.5	0	1	90	0.01	29.869 
07:40	65.6	65.6	65.6	93	63.5	0	2	90	0.00	29.869 
07:45	65.6	65.6	65.6	93	63.5	0	3	112	0.01	29.867 
07:50	65.6	65.6	65.6	94	63.8	0	1	112	0.00	29.867 
07:55	65.6	65.6	65.6	93	63.5	0	3	112	0.00	29.867 
08:00	65.6	65.6	65.6	94	63.8	0	1	112	0.00	29.867 
08:05	65.8	65.8	65.8	94	64.0	0	3	112	0.00	29.867 
08:10	65.8	65.8	65.8	94	64.0	0	2	112	0.01	29.867 
08:15	65.8	65.8	65.8	94	64.0	0	2	112	0.00	29.865 
08:20	66.0	66.0	66.0	94	64.2	0	0	---	0.00	29.865 
08:25	66.1	66.1	66.1	94	64.3	0	0	---	0.00	29.865 
08:30	66.1	66.1	66.1	94	64.3	0	2	112	0.00	29.862 
08:35	66.1	66.1	66.1	94	64.3	0	2	112	0.01	29.862 
08:40	66.1	66.1	66.1	94	64.3	0	1	112	0.00	29.862 
08:45	66.1	66.1	66.1	94	64.3	0	2	112	0.00	29.857 
08:50	66.1	66.1	66.1	94	64.3	0	2	112	0.01	29.857 
08:55	66.3	66.3	66.3	94	64.5	0	2	112	0.00	29.857 
09:00	66.3	66.3	66.3	95	64.8	0	2	112	0.01	29.855 
09:05	66.4	66.4	66.4	95	64.9	1	3	112	0.00	29.855 
09:10	66.4	66.4	66.4	95	64.9	0	1	112	0.00	29.855 
09:15	66.6	66.6	66.6	95	65.1	0	1	112	0.00	29.853 
09:20	66.8	66.8	66.8	95	65.3	0	2	112	0.00	29.853 
09:25	66.9	66.9	66.9	95	65.4	0	2	112	0.00	29.853 
09:30	67.3	67.3	67.3	95	65.8	0	1	112	0.00	29.846 
09:35	67.4	67.4	67.4	95	65.9	0	1	112	0.00	29.846 
09:40	67.6	67.6	67.6	95	66.1	0	1	112	0.00	29.846 
09:45	67.8	67.8	67.8	95	66.3	0	1	112	0.00	29.843 
09:50	67.8	67.8	67.8	95	66.3	0	1	112	0.00	29.843 
09:55	67.9	67.9	67.9	95	66.4	0	1	112	0.00	29.843 
10:00	68.1	68.1	68.1	95	66.6	0	2	112	0.00	29.840 
10:05	68.1	68.1	68.1	95	66.6	0	1	112	0.00	29.840 
10:10	68.3	68.3	68.3	95	66.8	0	2	112	0.00	29.840 
10:15	68.3	68.3	68.3	95	66.8	0	1	112	0.00	29.843 
10:20	68.3	68.3	68.3	95	66.8	0	1	112	0.00	29.843 
10:25	68.3	68.3	68.3	95	66.8	0	4	112	0.00	29.843 
10:30	68.3	68.3	68.3	95	66.8	0	2	112	0.00	29.845 
10:35	68.4	68.4	68.4	95	66.9	0	2	112	0.00	29.845 
10:40	68.4	68.4	68.4	95	66.9	0	3	112	0.00	29.845 
10:45	68.8	68.8	68.8	95	67.3	0	2	112	0.00	29.845 
10:50	68.9	68.9	68.9	95	67.4	0	2	112	0.00	29.845 
10:55	69.1	69.1	69.1	95	67.6	0	2	112	0.00	29.845 
11:00	69.4	69.4	69.4	95	67.9	0	2	112	0.00	29.850 
11:05	69.4	69.4	69.4	94	67.6	1	2	112	0.00	29.850 
11:10	69.6	69.6	69.6	95	68.1	0	3	112	0.00	29.850 
11:15	69.8	69.8	69.8	94	68.0	1	4	112	0.00	29.850 
11:20	69.8	69.8	69.8	94	68.0	1	4	112	0.00	29.850 
11:25	70.1	70.1	70.1	94	68.3	1	3	112	0.00	29.850 
11:30	70.1	70.1	70.1	93	68.0	2	5	90	0.00	29.844 
11:35	70.3	70.3	70.3	94	68.5	1	3	90	0.00	29.844 
11:40	70.4	70.4	70.4	93	68.3	1	4	90	0.00	29.844 
11:45	70.6	70.6	70.6	93	68.5	1	3	90	0.00	29.837 
11:50	70.6	70.6	70.6	93	68.5	1	4	90	0.00	29.837 
11:55	70.6	70.6	70.6	92	68.2	2	5	90	0.00	29.837 
12:00	70.8	70.8	70.8	92	68.4	2	6	90	0.00	29.836 
12:05	70.9	70.9	70.9	92	68.5	2	6	68	0.00	29.836 
12:10	71.1	71.1	71.1	91	68.3	1	6	90	0.00	29.836 
12:15	71.6	71.6	71.6	91	68.8	1	4	90	0.00	29.838 
12:20	71.5	71.5	71.5	90	68.4	3	6	90	0.00	29.838 
12:25	71.8	71.8	71.8	89	68.4	1	3	90	0.00	29.838 
12:30	72.1	72.1	72.1	89	68.7	0	2	90	0.00	29.838 
12:35	72.5	72.5	72.5	88	68.7	0	2	90	0.00	29.838 
12:40	73.2	73.2	73.2	88	69.4	0	1	90	0.00	29.838 
12:45	73.3	73.3	73.3	86	68.8	0	2	90	0.00	29.838 
12:50	73.3	73.3	73.3	85	68.5	0	2	90	0.00	29.838 
12:55	73.5	73.5	73.5	85	68.7	0	1	90	0.00	29.838 
13:00	74.0	74.0	74.0	85	69.2	0	2	90	0.00	29.835 
13:05	74.2	74.2	74.2	84	69.0	0	3	90	0.00	29.835 
13:10	74.0	74.0	74.0	84	68.8	1	3	90	0.00	29.835 
13:15	74.0	74.0	74.0	84	68.8	1	4	90	0.00	29.837 
13:20	74.0	74.0	74.0	85	69.2	0	3	90	0.00	29.837 
13:25	74.0	74.0	74.0	85	69.2	1	5	90	0.00	29.837 
13:30	73.9	73.9	73.9	85	69.1	1	5	90	0.00	29.827 
13:35	73.7	73.7	73.7	83	68.2	2	5	90	0.00	29.827 
13:40	73.9	73.9	73.9	83	68.4	2	5	90	0.00	29.827 
13:45	74.0	74.0	74.0	83	68.5	2	5	90	0.00	29.822 
13:50	74.2	74.2	74.2	81	68.0	2	5	90	0.00	29.822 
13:55	74.4	74.4	74.4	81	68.2	2	5	90	0.00	29.822 
14:00	74.6	74.6	74.6	80	68.0	1	4	90	0.00	29.822 
14:05	74.7	74.7	74.7	79	67.7	2	4	90	0.00	29.822 
14:10	75.1	75.1	75.6	81	68.9	2	5	90	0.00	29.822 
14:15	75.6	75.6	76.5	79	68.6	3	7	90	0.00	29.819 
14:20	76.0	76.0	77.2	77	68.3	2	6	90	0.00	29.819 
14:25	76.3	76.3	77.8	74	67.4	2	5	68	0.00	29.819 
14:30	76.5	76.5	78.0	76	68.4	1	5	90	0.00	29.812 
14:35	76.8	76.8	78.5	73	67.5	1	4	112	0.00	29.812 
14:40	77.0	77.0	78.7	74	68.1	3	6	68	0.00	29.812 
14:45	77.0	77.0	78.7	73	67.7	2	5	68	0.00	29.807 
14:50	77.4	77.4	79.3	73	68.0	1	5	112	0.00	29.807 
14:55	77.2	77.2	79.0	73	67.9	2	4	112	0.00	29.807 
15:00	77.2	77.2	79.0	72	67.5	2	6	90	0.00	29.804 
15:05	77.2	77.2	79.0	72	67.5	2	5	90	0.00	29.804 
15:10	77.4	77.4	79.3	70	66.8	2	6	90	0.01	29.804 
15:15	77.2	77.2	79.0	70	66.6	2	5	90	0.00	29.801 
15:20	77.4	77.4	79.3	74	68.4	2	4	112	0.00	29.801 
15:25	77.4	77.4	79.3	73	68.0	1	5	90	0.00	29.801 
15:30	77.6	77.6	79.5	69	66.6	2	5	90	0.00	29.805 
15:35	78.1	78.1	80.2	71	67.9	1	4	90	0.00	29.805 
15:40	78.6	78.6	80.8	69	67.6	1	4	90	0.00	29.805 
15:45	79.2	79.2	81.6	69	68.1	1	5	90	0.00	29.790 
15:50	79.6	79.6	82.1	68	68.1	1	4	90	0.00	29.790 
15:55	78.8	78.8	80.9	67	66.9	2	5	90	0.00	29.790 
16:00	77.9	77.9	79.8	67	66.0	2	4	90	0.00	29.791 
16:05	78.1	78.1	80.0	67	66.2	1	3	90	0.00	29.791 
16:10	79.0	79.0	81.3	68	67.5	2	6	90	0.00	29.791 
16:15	78.8	78.8	80.8	65	66.0	2	5	90	0.00	29.791 
16:20	78.3	78.3	80.2	66	66.0	2	5	90	0.00	29.791 
16:25	77.7	77.7	79.6	67	65.8	1	6	90	0.00	29.791 
16:30	77.6	77.6	79.5	69	66.6	0	0	---	0.00	29.789 
16:35	77.9	77.9	79.9	69	66.9	1	4	90	0.00	29.789 
16:40	78.5	78.5	80.4	65	65.7	1	4	90	0.00	29.789 
16:45	79.2	79.2	81.4	66	66.8	0	3	90	0.00	29.786 
16:50	79.6	79.6	81.7	64	66.3	1	3	90	0.00	29.786 
16:55	79.8	79.8	82.1	65	67.0	2	5	90	0.00	29.786 
17:00	79.4	79.4	81.3	62	65.2	2	4	90	0.00	29.781 
17:05	79.0	79.0	81.0	64	65.8	1	2	112	0.00	29.781 
17:10	78.6	78.6	80.6	65	65.8	1	3	112	0.00	29.781 
17:15	78.5	78.5	80.5	67	66.6	1	3	112	0.00	29.780 
17:20	78.8	78.8	80.8	65	66.0	1	5	112	0.00	29.780 
17:25	79.8	79.8	82.0	64	66.5	0	2	112	0.00	29.780 
17:30	80.3	80.3	82.4	62	66.1	0	3	112	0.00	29.776 
17:35	80.7	80.7	82.9	62	66.4	1	4	112	0.00	29.776 
17:40	80.3	80.3	82.5	63	66.5	1	4	90	0.00	29.776 
17:45	79.8	79.8	81.6	60	64.7	2	4	90	0.00	29.771 
17:50	79.4	79.4	81.4	63	65.7	0	2	90	0.00	29.771 
17:55	79.2	79.2	81.3	65	66.4	1	3	90	0.00	29.771 
18:00	79.4	79.4	81.4	63	65.7	1	4	90	0.00	29.773 
18:05	79.8	79.8	82.0	64	66.5	1	4	90	0.00	29.773 
18:10	79.9	79.9	82.0	63	66.2	0	2	90	0.00	29.773 
18:15	79.9	79.9	82.0	63	66.2	1	4	90	0.00	29.772 
18:20	79.9	79.9	81.9	62	65.7	0	2	90	0.00	29.772 
18:25	79.9	79.9	82.0	63	66.2	0	3	90	0.00	29.772 
18:30	79.6	79.6	81.6	63	65.9	2	4	90	0.00	29.768 
18:35	79.2	79.2	81.2	64	65.9	1	2	90	0.00	29.768 
18:40	78.6	78.6	80.5	64	65.4	1	3	90	0.00	29.768 
18:45	78.5	78.5	80.5	66	66.2	1	3	90	0.00	29.764 
18:50	78.1	78.1	80.0	66	65.8	0	2	90	0.00	29.764 
18:55	77.9	77.9	79.7	65	65.2	0	2	90	0.00	29.764 
19:00	77.9	77.9	79.8	66	65.6	0	3	90	0.00	29.763 
19:05	77.9	77.9	79.8	67	66.0	1	3	90	0.00	29.763 
19:10	77.9	77.9	79.8	67	66.0	1	3	90	0.00	29.763 
19:15	77.9	77.9	79.8	67	66.0	1	3	90	0.00	29.761 
19:20	77.9	77.9	79.8	67	66.0	1	3	90	0.00	29.761 
19:25	77.9	77.9	79.8	68	66.5	1	3	90	0.00	29.761 
19:30	77.7	77.7	79.6	66	65.4	0	2	90	0.00	29.762 
19:35	77.6	77.6	79.5	68	66.2	0	2	90	0.00	29.762 
19:40	77.6	77.6	79.5	67	65.8	0	1	90	0.00	29.762 
19:45	77.6	77.6	79.4	66	65.3	0	2	90	0.00	29.760 
19:50	77.4	77.4	79.2	66	65.1	0	2	90	0.00	29.760 
19:55	77.4	77.4	79.2	67	65.6	0	2	90	0.00	29.760 
20:00	77.4	77.4	79.2	66	65.1	0	2	90	0.00	29.760 
20:05	77.2	77.2	79.0	67	65.4	0	1	90	0.00	29.760 
20:10	77.2	77.2	79.0	67	65.4	0	0	---	0.00	29.760 
20:15	77.0	77.0	78.8	67	65.2	1	3	90	0.00	29.759 
20:20	76.8	76.8	78.6	67	65.0	1	2	90	0.00	29.759 
20:25	76.7	76.7	78.5	67	64.9	0	2	90	0.00	29.759 
20:30	76.5	76.5	78.3	67	64.7	0	1	90	0.00	29.751 
20:35	76.5	76.5	78.3	68	65.1	0	1	90	0.00	29.751 
20:40	76.3	76.3	78.0	68	64.9	0	1	90	0.00	29.751 
20:45	76.1	76.1	77.8	68	64.8	0	0	---	0.00	29.759 
20:50	76.1	76.1	77.8	69	65.2	0	1	90	0.00	29.759 
20:55	75.8	75.8	77.4	70	65.3	0	0	---	0.00	29.759 
21:00	75.6	75.6	77.2	70	65.1	0	0	---	0.00	29.763 
21:05	75.4	75.4	77.0	71	65.3	0	0	---	0.00	29.763 
21:10	75.1	75.1	76.6	72	65.4	0	0	---	0.00	29.763 
21:15	74.7	74.7	74.7	73	65.5	0	0	---	0.00	29.763 
21:20	74.4	74.4	74.4	74	65.6	0	0	---	0.00	29.763 
21:25	74.0	74.0	74.0	75	65.6	0	0	---	0.00	29.763 
21:30	73.9	73.9	73.9	76	65.8	0	0	---	0.00	29.764 
21:35	73.7	73.7	73.7	77	66.0	0	0	---	0.00	29.764 
21:40	73.3	73.3	73.3	77	65.6	0	0	---	0.00	29.764 
21:45	73.0	73.0	73.0	77	65.3	0	0	---	0.00	29.769 
21:50	72.8	72.8	72.8	77	65.2	0	0	---	0.00	29.769 
21:55	72.7	72.7	72.7	78	65.4	0	0	---	0.00	29.769 
22:00	72.5	72.5	72.5	79	65.6	0	0	---	0.00	29.780 
22:05	72.3	72.3	72.3	80	65.8	0	0	---	0.00	29.780 
22:10	72.1	72.1	72.1	80	65.6	0	0	---	0.00	29.780 
22:15	72.1	72.1	72.1	81	65.9	0	0	---	0.00	29.781 
22:20	72.0	72.0	72.0	81	65.8	0	0	---	0.00	29.781 
22:25	71.6	71.6	71.6	82	65.8	0	0	---	0.00	29.781 
22:30	71.6	71.6	71.6	82	65.8	0	0	---	0.00	29.784 
22:35	71.5	71.5	71.5	83	66.1	0	0	---	0.00	29.784 
22:40	71.3	71.3	71.3	83	65.9	0	0	---	0.00	29.784 
22:45	71.1	71.1	71.1	83	65.7	0	0	---	0.00	29.782 
22:50	70.9	70.9	70.9	84	65.8	0	0	---	0.00	29.782 
22:55	70.8	70.8	70.8	84	65.7	0	0	---	0.00	29.782 
23:00	70.6	70.6	70.6	85	65.9	0	0	---	0.00	29.780 
23:05	70.4	70.4	70.4	85	65.7	0	0	---	0.00	29.780 
23:10	70.3	70.3	70.3	86	65.9	0	0	---	0.00	29.780 
23:15	70.1	70.1	70.1	86	65.7	0	0	---	0.00	29.781 
23:20	69.9	69.9	69.9	87	65.8	0	0	---	0.00	29.781 
23:25	69.9	69.9	69.9	87	65.8	0	0	---	0.00	29.781 
23:30	69.8	69.8	69.8	87	65.7	0	0	---	0.00	29.786 
23:35	69.6	69.6	69.6	88	65.9	0	0	---	0.00	29.786 
23:40	69.6	69.6	69.6	88	65.9	0	0	---	0.00	29.786 
23:45	69.4	69.4	69.4	88	65.7	0	0	---	0.00	29.793 
23:50	69.3	69.3	69.3	89	65.9	0	0	---	0.00	29.793 
23:55	69.3	69.3	69.3	89	65.9	0	0	---	0.00	29.793 

CoCoRaHS
IN-AL-39
A2 Web Hosting
Creative Commons License
GoDaddy
search engine by freefind advanced

loaded 2018-11-13 22:42:08 • last modified 2010-11-18 10:43:29
Privacy PolicyDisclaimer
• wx.awcolley.com is powered by PmWiki v.2002016 •
• all content (unless otherwise noted) © 2018 A W Colley